sensor_id;sensor_type;location;lat;lon;timestamp;P1;durP1;ratioP1;P2;durP2;ratioP2
25057;SDS011;13057;50.978;11.034;2022-08-04T00:02:36;12.25;;;2.63;;
25057;SDS011;13057;50.978;11.034;2022-08-04T00:05:28;3.75;;;2.30;;
25057;SDS011;13057;50.978;11.034;2022-08-04T00:08:12;5.07;;;2.50;;
25057;SDS011;13057;50.978;11.034;2022-08-04T00:10:47;4.55;;;2.50;;
25057;SDS011;13057;50.978;11.034;2022-08-04T00:13:21;3.15;;;2.58;;
25057;SDS011;13057;50.978;11.034;2022-08-04T00:15:52;4.60;;;2.30;;
25057;SDS011;13057;50.978;11.034;2022-08-04T00:18:22;3.47;;;2.25;;
25057;SDS011;13057;50.978;11.034;2022-08-04T00:20:53;7.93;;;2.63;;
25057;SDS011;13057;50.978;11.034;2022-08-04T00:23:23;3.92;;;2.72;;
25057;SDS011;13057;50.978;11.034;2022-08-04T00:25:52;3.03;;;2.60;;
25057;SDS011;13057;50.978;11.034;2022-08-04T00:28:20;2.90;;;2.58;;
25057;SDS011;13057;50.978;11.034;2022-08-04T00:30:46;6.00;;;2.53;;
25057;SDS011;13057;50.978;11.034;2022-08-04T00:33:16;5.03;;;2.72;;
25057;SDS011;13057;50.978;11.034;2022-08-04T00:35:43;8.50;;;2.90;;
25057;SDS011;13057;50.978;11.034;2022-08-04T00:38:13;2.85;;;2.28;;
25057;SDS011;13057;50.978;11.034;2022-08-04T00:40:46;7.82;;;2.50;;
25057;SDS011;13057;50.978;11.034;2022-08-04T00:43:29;4.22;;;2.65;;
25057;SDS011;13057;50.978;11.034;2022-08-04T00:49:09;5.68;;;2.55;;
25057;SDS011;13057;50.978;11.034;2022-08-04T00:52:06;5.30;;;2.65;;
25057;SDS011;13057;50.978;11.034;2022-08-04T00:54:54;4.80;;;2.58;;
25057;SDS011;13057;50.978;11.034;2022-08-04T00:58:05;6.55;;;2.75;;
25057;SDS011;13057;50.978;11.034;2022-08-04T01:00:58;2.80;;;2.50;;
25057;SDS011;13057;50.978;11.034;2022-08-04T01:03:32;4.03;;;2.60;;
25057;SDS011;13057;50.978;11.034;2022-08-04T01:06:11;5.70;;;2.70;;
25057;SDS011;13057;50.978;11.034;2022-08-04T01:11:55;4.97;;;2.40;;
25057;SDS011;13057;50.978;11.034;2022-08-04T01:14:46;7.03;;;2.80;;
25057;SDS011;13057;50.978;11.034;2022-08-04T01:17:27;4.03;;;2.75;;
25057;SDS011;13057;50.978;11.034;2022-08-04T01:20:19;6.15;;;2.90;;
25057;SDS011;13057;50.978;11.034;2022-08-04T01:26:10;4.55;;;2.95;;
25057;SDS011;13057;50.978;11.034;2022-08-04T01:31:37;3.75;;;2.70;;
25057;SDS011;13057;50.978;11.034;2022-08-04T01:34:18;4.88;;;2.75;;
25057;SDS011;13057;50.978;11.034;2022-08-04T01:36:47;5.30;;;2.80;;
25057;SDS011;13057;50.978;11.034;2022-08-04T01:39:22;5.13;;;2.60;;
25057;SDS011;13057;50.978;11.034;2022-08-04T01:42:05;3.80;;;2.53;;
25057;SDS011;13057;50.978;11.034;2022-08-04T01:44:32;3.85;;;2.88;;
25057;SDS011;13057;50.978;11.034;2022-08-04T01:46:59;11.15;;;2.90;;
25057;SDS011;13057;50.978;11.034;2022-08-04T01:49:28;5.20;;;2.58;;
25057;SDS011;13057;50.978;11.034;2022-08-04T01:51:55;4.53;;;2.70;;
25057;SDS011;13057;50.978;11.034;2022-08-04T01:54:22;9.65;;;2.78;;
25057;SDS011;13057;50.978;11.034;2022-08-04T01:56:49;9.85;;;3.05;;
25057;SDS011;13057;50.978;11.034;2022-08-04T01:59:17;3.85;;;2.90;;
25057;SDS011;13057;50.978;11.034;2022-08-04T02:01:44;5.30;;;2.60;;
25057;SDS011;13057;50.978;11.034;2022-08-04T02:04:14;3.22;;;2.83;;
25057;SDS011;13057;50.978;11.034;2022-08-04T02:06:49;3.03;;;2.72;;
25057;SDS011;13057;50.978;11.034;2022-08-04T02:09:37;6.22;;;3.05;;
25057;SDS011;13057;50.978;11.034;2022-08-04T02:12:15;4.72;;;2.67;;
25057;SDS011;13057;50.978;11.034;2022-08-04T02:14:58;4.55;;;2.50;;
25057;SDS011;13057;50.978;11.034;2022-08-04T02:17:30;3.15;;;2.58;;
25057;SDS011;13057;50.978;11.034;2022-08-04T02:20:06;5.93;;;2.83;;
25057;SDS011;13057;50.978;11.034;2022-08-04T02:22:38;4.90;;;2.88;;
25057;SDS011;13057;50.978;11.034;2022-08-04T02:25:10;6.35;;;2.85;;
25057;SDS011;13057;50.978;11.034;2022-08-04T02:27:44;3.17;;;2.63;;
25057;SDS011;13057;50.978;11.034;2022-08-04T02:30:19;4.47;;;3.03;;
25057;SDS011;13057;50.978;11.034;2022-08-04T02:32:46;5.57;;;2.83;;
25057;SDS011;13057;50.978;11.034;2022-08-04T02:35:21;3.40;;;2.70;;
25057;SDS011;13057;50.978;11.034;2022-08-04T02:37:55;3.30;;;2.47;;
25057;SDS011;13057;50.978;11.034;2022-08-04T02:40:29;5.53;;;2.72;;
25057;SDS011;13057;50.978;11.034;2022-08-04T02:42:56;8.70;;;2.85;;
25057;SDS011;13057;50.978;11.034;2022-08-04T02:45:24;5.20;;;2.80;;
25057;SDS011;13057;50.978;11.034;2022-08-04T02:47:52;3.88;;;2.65;;
25057;SDS011;13057;50.978;11.034;2022-08-04T02:50:19;3.03;;;2.72;;
25057;SDS011;13057;50.978;11.034;2022-08-04T02:52:46;4.10;;;2.90;;
25057;SDS011;13057;50.978;11.034;2022-08-04T02:55:14;2.92;;;2.63;;
25057;SDS011;13057;50.978;11.034;2022-08-04T02:57:42;5.70;;;2.85;;
25057;SDS011;13057;50.978;11.034;2022-08-04T03:00:11;8.05;;;3.47;;
25057;SDS011;13057;50.978;11.034;2022-08-04T03:02:44;3.88;;;3.33;;
25057;SDS011;13057;50.978;11.034;2022-08-04T03:05:20;3.58;;;2.83;;
25057;SDS011;13057;50.978;11.034;2022-08-04T03:10:48;3.78;;;3.03;;
25057;SDS011;13057;50.978;11.034;2022-08-04T03:13:34;4.28;;;2.67;;
25057;SDS011;13057;50.978;11.034;2022-08-04T03:16:29;4.82;;;2.88;;
25057;SDS011;13057;50.978;11.034;2022-08-04T03:19:27;5.45;;;2.88;;
25057;SDS011;13057;50.978;11.034;2022-08-04T03:22:23;5.25;;;2.80;;
25057;SDS011;13057;50.978;11.034;2022-08-04T03:27:53;2.88;;;2.40;;
25057;SDS011;13057;50.978;11.034;2022-08-04T03:33:40;4.30;;;2.70;;
25057;SDS011;13057;50.978;11.034;2022-08-04T03:39:30;6.60;;;3.20;;
25057;SDS011;13057;50.978;11.034;2022-08-04T03:42:23;6.10;;;3.20;;
25057;SDS011;13057;50.978;11.034;2022-08-04T03:48:08;5.35;;;3.25;;
25057;SDS011;13057;50.978;11.034;2022-08-04T03:50:56;7.78;;;3.20;;
25057;SDS011;13057;50.978;11.034;2022-08-04T03:54:02;4.63;;;2.92;;
25057;SDS011;13057;50.978;11.034;2022-08-04T03:56:46;4.78;;;3.38;;
25057;SDS011;13057;50.978;11.034;2022-08-04T03:59:43;4.20;;;2.92;;
25057;SDS011;13057;50.978;11.034;2022-08-04T04:02:36;5.38;;;2.60;;
25057;SDS011;13057;50.978;11.034;2022-08-04T04:05:28;4.07;;;3.10;;
25057;SDS011;13057;50.978;11.034;2022-08-04T04:08:09;4.20;;;2.97;;
25057;SDS011;13057;50.978;11.034;2022-08-04T04:11:06;4.18;;;3.08;;
25057;SDS011;13057;50.978;11.034;2022-08-04T04:14:00;8.20;;;3.08;;
25057;SDS011;13057;50.978;11.034;2022-08-04T04:16:43;6.00;;;3.45;;
25057;SDS011;13057;50.978;11.034;2022-08-04T04:19:27;5.88;;;3.10;;
25057;SDS011;13057;50.978;11.034;2022-08-04T04:22:04;7.00;;;3.13;;
25057;SDS011;13057;50.978;11.034;2022-08-04T04:24:48;7.18;;;3.15;;
25057;SDS011;13057;50.978;11.034;2022-08-04T04:30:33;13.90;;;4.03;;
25057;SDS011;13057;50.978;11.034;2022-08-04T04:33:18;6.03;;;3.30;;
25057;SDS011;13057;50.978;11.034;2022-08-04T04:36:09;6.97;;;3.60;;
25057;SDS011;13057;50.978;11.034;2022-08-04T04:38:51;7.65;;;4.10;;
25057;SDS011;13057;50.978;11.034;2022-08-04T04:44:22;9.95;;;3.70;;
25057;SDS011;13057;50.978;11.034;2022-08-04T04:47:10;4.40;;;3.33;;
25057;SDS011;13057;50.978;11.034;2022-08-04T04:50:01;5.30;;;3.45;;
25057;SDS011;13057;50.978;11.034;2022-08-04T04:52:39;5.22;;;3.28;;
25057;SDS011;13057;50.978;11.034;2022-08-04T04:55:15;4.72;;;3.25;;
25057;SDS011;13057;50.978;11.034;2022-08-04T04:57:47;7.80;;;3.72;;
25057;SDS011;13057;50.978;11.034;2022-08-04T05:00:16;7.68;;;4.00;;
25057;SDS011;13057;50.978;11.034;2022-08-04T05:02:55;6.07;;;3.40;;
25057;SDS011;13057;50.978;11.034;2022-08-04T05:05:52;9.43;;;3.90;;
25057;SDS011;13057;50.978;11.034;2022-08-04T05:08:42;6.47;;;3.20;;
25057;SDS011;13057;50.978;11.034;2022-08-04T05:14:33;6.75;;;3.15;;
25057;SDS011;13057;50.978;11.034;2022-08-04T05:17:11;4.25;;;3.00;;
25057;SDS011;13057;50.978;11.034;2022-08-04T05:19:50;7.10;;;3.28;;
25057;SDS011;13057;50.978;11.034;2022-08-04T05:22:27;6.05;;;3.42;;
25057;SDS011;13057;50.978;11.034;2022-08-04T05:25:02;9.00;;;3.17;;
25057;SDS011;13057;50.978;11.034;2022-08-04T05:30:02;7.78;;;3.20;;
25057;SDS011;13057;50.978;11.034;2022-08-04T05:32:32;8.27;;;3.20;;
25057;SDS011;13057;50.978;11.034;2022-08-04T05:35:07;10.90;;;3.40;;
25057;SDS011;13057;50.978;11.034;2022-08-04T05:37:36;6.65;;;3.20;;
25057;SDS011;13057;50.978;11.034;2022-08-04T05:40:05;7.75;;;3.53;;
25057;SDS011;13057;50.978;11.034;2022-08-04T05:42:34;9.77;;;3.53;;
25057;SDS011;13057;50.978;11.034;2022-08-04T05:45:02;9.00;;;3.58;;
25057;SDS011;13057;50.978;11.034;2022-08-04T05:47:30;8.93;;;3.80;;
25057;SDS011;13057;50.978;11.034;2022-08-04T05:49:58;6.53;;;3.42;;
25057;SDS011;13057;50.978;11.034;2022-08-04T05:52:25;11.63;;;3.40;;
25057;SDS011;13057;50.978;11.034;2022-08-04T05:54:53;7.30;;;3.28;;
25057;SDS011;13057;50.978;11.034;2022-08-04T05:57:20;13.20;;;3.40;;
25057;SDS011;13057;50.978;11.034;2022-08-04T05:59:47;20.52;;;4.03;;
25057;SDS011;13057;50.978;11.034;2022-08-04T06:02:16;10.95;;;3.30;;
25057;SDS011;13057;50.978;11.034;2022-08-04T06:04:46;6.55;;;3.40;;
25057;SDS011;13057;50.978;11.034;2022-08-04T06:07:14;6.20;;;3.10;;
25057;SDS011;13057;50.978;11.034;2022-08-04T06:09:40;6.70;;;3.40;;
25057;SDS011;13057;50.978;11.034;2022-08-04T06:12:07;8.48;;;3.63;;
25057;SDS011;13057;50.978;11.034;2022-08-04T06:14:38;9.55;;;3.30;;
25057;SDS011;13057;50.978;11.034;2022-08-04T06:17:08;6.63;;;3.60;;
25057;SDS011;13057;50.978;11.034;2022-08-04T06:19:35;6.10;;;2.88;;
25057;SDS011;13057;50.978;11.034;2022-08-04T06:22:05;6.00;;;3.63;;
25057;SDS011;13057;50.978;11.034;2022-08-04T06:24:33;10.05;;;3.50;;
25057;SDS011;13057;50.978;11.034;2022-08-04T06:27:01;8.23;;;3.60;;
25057;SDS011;13057;50.978;11.034;2022-08-04T06:29:29;11.30;;;4.07;;
25057;SDS011;13057;50.978;11.034;2022-08-04T06:32:03;14.07;;;4.88;;
25057;SDS011;13057;50.978;11.034;2022-08-04T06:34:38;21.92;;;6.05;;
25057;SDS011;13057;50.978;11.034;2022-08-04T06:37:06;14.95;;;4.22;;
25057;SDS011;13057;50.978;11.034;2022-08-04T06:39:34;15.73;;;4.90;;
25057;SDS011;13057;50.978;11.034;2022-08-04T06:42:00;17.92;;;4.57;;
25057;SDS011;13057;50.978;11.034;2022-08-04T06:44:28;9.32;;;4.00;;
25057;SDS011;13057;50.978;11.034;2022-08-04T06:46:54;15.95;;;3.78;;
25057;SDS011;13057;50.978;11.034;2022-08-04T06:49:22;62.83;;;11.38;;
25057;SDS011;13057;50.978;11.034;2022-08-04T06:51:50;32.53;;;6.82;;
25057;SDS011;13057;50.978;11.034;2022-08-04T06:54:18;15.93;;;5.45;;
25057;SDS011;13057;50.978;11.034;2022-08-04T06:56:43;14.10;;;4.32;;
25057;SDS011;13057;50.978;11.034;2022-08-04T06:59:11;7.60;;;3.90;;
25057;SDS011;13057;50.978;11.034;2022-08-04T07:01:38;10.00;;;3.45;;
25057;SDS011;13057;50.978;11.034;2022-08-04T07:04:05;9.90;;;3.13;;
25057;SDS011;13057;50.978;11.034;2022-08-04T07:06:31;11.55;;;3.25;;
25057;SDS011;13057;50.978;11.034;2022-08-04T07:08:58;10.32;;;3.00;;
25057;SDS011;13057;50.978;11.034;2022-08-04T07:11:24;4.15;;;3.03;;
25057;SDS011;13057;50.978;11.034;2022-08-04T07:13:51;6.40;;;4.20;;
25057;SDS011;13057;50.978;11.034;2022-08-04T07:16:19;10.30;;;3.10;;
25057;SDS011;13057;50.978;11.034;2022-08-04T07:18:46;9.55;;;3.45;;
25057;SDS011;13057;50.978;11.034;2022-08-04T07:21:20;15.38;;;3.75;;
25057;SDS011;13057;50.978;11.034;2022-08-04T07:23:47;4.78;;;3.28;;
25057;SDS011;13057;50.978;11.034;2022-08-04T07:26:14;5.18;;;3.17;;
25057;SDS011;13057;50.978;11.034;2022-08-04T07:28:41;7.18;;;2.70;;
25057;SDS011;13057;50.978;11.034;2022-08-04T07:31:09;8.27;;;3.20;;
25057;SDS011;13057;50.978;11.034;2022-08-04T07:33:37;6.50;;;3.20;;
25057;SDS011;13057;50.978;11.034;2022-08-04T07:36:06;6.97;;;3.00;;
25057;SDS011;13057;50.978;11.034;2022-08-04T07:38:32;3.85;;;3.10;;
25057;SDS011;13057;50.978;11.034;2022-08-04T07:40:58;6.78;;;2.97;;
25057;SDS011;13057;50.978;11.034;2022-08-04T07:43:25;6.65;;;2.75;;
25057;SDS011;13057;50.978;11.034;2022-08-04T07:45:51;5.63;;;2.85;;
25057;SDS011;13057;50.978;11.034;2022-08-04T07:48:17;12.40;;;3.45;;
25057;SDS011;13057;50.978;11.034;2022-08-04T07:50:46;6.68;;;2.97;;
25057;SDS011;13057;50.978;11.034;2022-08-04T07:53:13;7.70;;;3.13;;
25057;SDS011;13057;50.978;11.034;2022-08-04T07:55:39;9.38;;;3.38;;
25057;SDS011;13057;50.978;11.034;2022-08-04T07:58:05;13.57;;;3.70;;
25057;SDS011;13057;50.978;11.034;2022-08-04T08:00:31;6.80;;;3.28;;
25057;SDS011;13057;50.978;11.034;2022-08-04T08:02:57;7.68;;;3.30;;
25057;SDS011;13057;50.978;11.034;2022-08-04T08:05:24;29.15;;;4.07;;
25057;SDS011;13057;50.978;11.034;2022-08-04T08:07:50;13.45;;;3.83;;
25057;SDS011;13057;50.978;11.034;2022-08-04T08:10:16;8.15;;;3.20;;
25057;SDS011;13057;50.978;11.034;2022-08-04T08:12:43;13.13;;;3.33;;
25057;SDS011;13057;50.978;11.034;2022-08-04T08:15:10;5.95;;;3.67;;
25057;SDS011;13057;50.978;11.034;2022-08-04T08:17:36;4.32;;;2.80;;
25057;SDS011;13057;50.978;11.034;2022-08-04T08:20:03;8.40;;;3.08;;
25057;SDS011;13057;50.978;11.034;2022-08-04T08:22:31;6.22;;;3.35;;
25057;SDS011;13057;50.978;11.034;2022-08-04T08:24:57;7.93;;;3.25;;
25057;SDS011;13057;50.978;11.034;2022-08-04T08:27:24;9.18;;;3.00;;
25057;SDS011;13057;50.978;11.034;2022-08-04T08:29:50;12.75;;;2.97;;
25057;SDS011;13057;50.978;11.034;2022-08-04T08:32:16;8.40;;;3.00;;
25057;SDS011;13057;50.978;11.034;2022-08-04T08:34:42;6.13;;;2.97;;
25057;SDS011;13057;50.978;11.034;2022-08-04T08:39:56;5.25;;;2.53;;
25057;SDS011;13057;50.978;11.034;2022-08-04T08:42:41;4.15;;;2.38;;
25057;SDS011;13057;50.978;11.034;2022-08-04T08:45:41;4.95;;;2.85;;
25057;SDS011;13057;50.978;11.034;2022-08-04T08:48:31;8.52;;;2.50;;
25057;SDS011;13057;50.978;11.034;2022-08-04T08:51:19;4.82;;;2.38;;
25057;SDS011;13057;50.978;11.034;2022-08-04T08:53:58;4.28;;;2.50;;
25057;SDS011;13057;50.978;11.034;2022-08-04T08:56:38;5.70;;;2.30;;
25057;SDS011;13057;50.978;11.034;2022-08-04T09:05:11;7.15;;;2.47;;
25057;SDS011;13057;50.978;11.034;2022-08-04T09:08:03;2.53;;;1.90;;
25057;SDS011;13057;50.978;11.034;2022-08-04T09:10:46;4.45;;;2.10;;
25057;SDS011;13057;50.978;11.034;2022-08-04T09:13:18;7.22;;;1.95;;
25057;SDS011;13057;50.978;11.034;2022-08-04T09:18:37;3.78;;;2.20;;
25057;SDS011;13057;50.978;11.034;2022-08-04T09:21:17;3.72;;;1.77;;
25057;SDS011;13057;50.978;11.034;2022-08-04T09:26:39;1.90;;;1.40;;
25057;SDS011;13057;50.978;11.034;2022-08-04T09:29:17;2.55;;;1.77;;
25057;SDS011;13057;50.978;11.034;2022-08-04T09:31:54;3.80;;;1.77;;
25057;SDS011;13057;50.978;11.034;2022-08-04T09:39:58;7.72;;;2.00;;
25057;SDS011;13057;50.978;11.034;2022-08-04T09:45:23;3.08;;;1.77;;
25057;SDS011;13057;50.978;11.034;2022-08-04T09:48:05;4.32;;;1.80;;
25057;SDS011;13057;50.978;11.034;2022-08-04T09:50:36;5.75;;;2.10;;
25057;SDS011;13057;50.978;11.034;2022-08-04T09:56:02;2.65;;;1.40;;
25057;SDS011;13057;50.978;11.034;2022-08-04T09:58:45;3.22;;;1.60;;
25057;SDS011;13057;50.978;11.034;2022-08-04T10:01:27;2.15;;;1.40;;
25057;SDS011;13057;50.978;11.034;2022-08-04T10:03:55;3.00;;;1.65;;
25057;SDS011;13057;50.978;11.034;2022-08-04T10:06:41;2.38;;;1.77;;
25057;SDS011;13057;50.978;11.034;2022-08-04T10:09:23;2.65;;;1.60;;
25057;SDS011;13057;50.978;11.034;2022-08-04T10:12:16;2.80;;;1.70;;
25057;SDS011;13057;50.978;11.034;2022-08-04T10:15:18;2.03;;;1.70;;
25057;SDS011;13057;50.978;11.034;2022-08-04T10:18:03;2.50;;;1.42;;
25057;SDS011;13057;50.978;11.034;2022-08-04T10:20:41;6.65;;;1.75;;
25057;SDS011;13057;50.978;11.034;2022-08-04T10:23:22;2.15;;;1.40;;
25057;SDS011;13057;50.978;11.034;2022-08-04T10:26:04;2.05;;;1.25;;
25057;SDS011;13057;50.978;11.034;2022-08-04T10:28:48;1.95;;;1.38;;
25057;SDS011;13057;50.978;11.034;2022-08-04T10:31:29;2.83;;;1.40;;
25057;SDS011;13057;50.978;11.034;2022-08-04T10:34:00;4.30;;;1.40;;
25057;SDS011;13057;50.978;11.034;2022-08-04T10:36:38;2.72;;;1.63;;
25057;SDS011;13057;50.978;11.034;2022-08-04T10:39:16;3.10;;;1.73;;
25057;SDS011;13057;50.978;11.034;2022-08-04T10:41:55;6.50;;;1.58;;
25057;SDS011;13057;50.978;11.034;2022-08-04T10:44:49;3.42;;;1.15;;
25057;SDS011;13057;50.978;11.034;2022-08-04T10:47:32;3.17;;;1.30;;
25057;SDS011;13057;50.978;11.034;2022-08-04T10:50:02;5.88;;;1.30;;
25057;SDS011;13057;50.978;11.034;2022-08-04T10:52:32;1.48;;;1.23;;
25057;SDS011;13057;50.978;11.034;2022-08-04T10:55:08;2.03;;;1.15;;
25057;SDS011;13057;50.978;11.034;2022-08-04T10:57:40;2.03;;;1.35;;
25057;SDS011;13057;50.978;11.034;2022-08-04T11:00:25;2.80;;;1.10;;
25057;SDS011;13057;50.978;11.034;2022-08-04T11:03:05;4.22;;;1.52;;
25057;SDS011;13057;50.978;11.034;2022-08-04T11:05:43;2.20;;;1.50;;
25057;SDS011;13057;50.978;11.034;2022-08-04T11:08:16;4.63;;;1.20;;
25057;SDS011;13057;50.978;11.034;2022-08-04T11:10:54;5.20;;;1.50;;
25057;SDS011;13057;50.978;11.034;2022-08-04T11:13:32;3.20;;;1.10;;
25057;SDS011;13057;50.978;11.034;2022-08-04T11:16:07;2.50;;;1.23;;
25057;SDS011;13057;50.978;11.034;2022-08-04T11:21:31;1.70;;;1.05;;
25057;SDS011;13057;50.978;11.034;2022-08-04T11:24:01;1.30;;;1.00;;
25057;SDS011;13057;50.978;11.034;2022-08-04T11:26:36;1.25;;;1.08;;
25057;SDS011;13057;50.978;11.034;2022-08-04T11:29:15;7.05;;;1.40;;
25057;SDS011;13057;50.978;11.034;2022-08-04T11:31:48;1.60;;;0.90;;
25057;SDS011;13057;50.978;11.034;2022-08-04T11:34:18;7.95;;;1.73;;
25057;SDS011;13057;50.978;11.034;2022-08-04T11:36:55;2.58;;;0.93;;
25057;SDS011;13057;50.978;11.034;2022-08-04T11:39:27;1.77;;;1.17;;
25057;SDS011;13057;50.978;11.034;2022-08-04T11:42:09;2.83;;;1.17;;
25057;SDS011;13057;50.978;11.034;2022-08-04T11:44:51;1.17;;;0.90;;
25057;SDS011;13057;50.978;11.034;2022-08-04T11:47:31;4.32;;;1.00;;
25057;SDS011;13057;50.978;11.034;2022-08-04T11:50:13;2.55;;;1.10;;
25057;SDS011;13057;50.978;11.034;2022-08-04T11:53:02;7.25;;;2.83;;
25057;SDS011;13057;50.978;11.034;2022-08-04T11:55:31;1.73;;;1.10;;
25057;SDS011;13057;50.978;11.034;2022-08-04T11:57:58;9.70;;;1.58;;
25057;SDS011;13057;50.978;11.034;2022-08-04T12:00:25;1.30;;;1.10;;
25057;SDS011;13057;50.978;11.034;2022-08-04T12:02:58;3.70;;;1.30;;
25057;SDS011;13057;50.978;11.034;2022-08-04T12:05:42;2.22;;;0.95;;
25057;SDS011;13057;50.978;11.034;2022-08-04T12:08:20;1.00;;;0.90;;
25057;SDS011;13057;50.978;11.034;2022-08-04T12:16:57;2.92;;;1.20;;
25057;SDS011;13057;50.978;11.034;2022-08-04T12:19:28;4.35;;;1.75;;
25057;SDS011;13057;50.978;11.034;2022-08-04T12:22:02;3.50;;;1.30;;
25057;SDS011;13057;50.978;11.034;2022-08-04T12:27:04;1.77;;;0.88;;
25057;SDS011;13057;50.978;11.034;2022-08-04T12:29:36;1.83;;;1.10;;
25057;SDS011;13057;50.978;11.034;2022-08-04T12:32:07;1.05;;;0.90;;
25057;SDS011;13057;50.978;11.034;2022-08-04T12:34:48;1.00;;;0.70;;
25057;SDS011;13057;50.978;11.034;2022-08-04T12:40:00;1.00;;;0.80;;
25057;SDS011;13057;50.978;11.034;2022-08-04T12:42:41;0.80;;;0.80;;
25057;SDS011;13057;50.978;11.034;2022-08-04T12:45:12;1.58;;;1.10;;
25057;SDS011;13057;50.978;11.034;2022-08-04T12:47:39;0.93;;;0.82;;
25057;SDS011;13057;50.978;11.034;2022-08-04T12:50:06;1.77;;;1.00;;
25057;SDS011;13057;50.978;11.034;2022-08-04T12:52:41;2.75;;;1.00;;
25057;SDS011;13057;50.978;11.034;2022-08-04T12:55:10;1.20;;;0.90;;
25057;SDS011;13057;50.978;11.034;2022-08-04T12:57:37;2.35;;;1.50;;
25057;SDS011;13057;50.978;11.034;2022-08-04T13:00:06;2.33;;;1.50;;
25057;SDS011;13057;50.978;11.034;2022-08-04T13:02:35;1.60;;;0.95;;
25057;SDS011;13057;50.978;11.034;2022-08-04T13:05:06;2.42;;;1.15;;
25057;SDS011;13057;50.978;11.034;2022-08-04T13:07:35;0.90;;;0.70;;
25057;SDS011;13057;50.978;11.034;2022-08-04T13:12:43;1.20;;;0.90;;
25057;SDS011;13057;50.978;11.034;2022-08-04T13:15:21;1.23;;;0.82;;
25057;SDS011;13057;50.978;11.034;2022-08-04T13:17:52;1.05;;;0.88;;
25057;SDS011;13057;50.978;11.034;2022-08-04T13:20:24;2.17;;;1.17;;
25057;SDS011;13057;50.978;11.034;2022-08-04T13:22:52;4.15;;;0.90;;
25057;SDS011;13057;50.978;11.034;2022-08-04T13:25:26;1.25;;;0.90;;
25057;SDS011;13057;50.978;11.034;2022-08-04T13:27:54;1.27;;;0.95;;
25057;SDS011;13057;50.978;11.034;2022-08-04T13:30:21;1.25;;;1.00;;
25057;SDS011;13057;50.978;11.034;2022-08-04T13:32:53;0.90;;;0.65;;
25057;SDS011;13057;50.978;11.034;2022-08-04T13:35:22;1.23;;;0.80;;
25057;SDS011;13057;50.978;11.034;2022-08-04T13:37:50;1.00;;;0.90;;
25057;SDS011;13057;50.978;11.034;2022-08-04T13:40:20;2.75;;;1.25;;
25057;SDS011;13057;50.978;11.034;2022-08-04T13:42:47;6.10;;;1.45;;
25057;SDS011;13057;50.978;11.034;2022-08-04T13:45:20;9.43;;;2.22;;
25057;SDS011;13057;50.978;11.034;2022-08-04T13:47:47;8.07;;;2.60;;
25057;SDS011;13057;50.978;11.034;2022-08-04T13:50:20;7.43;;;2.20;;
25057;SDS011;13057;50.978;11.034;2022-08-04T13:52:51;14.00;;;2.88;;
25057;SDS011;13057;50.978;11.034;2022-08-04T13:55:24;5.53;;;2.10;;
25057;SDS011;13057;50.978;11.034;2022-08-04T13:57:58;12.13;;;2.53;;
25057;SDS011;13057;50.978;11.034;2022-08-04T14:00:40;4.72;;;1.90;;
25057;SDS011;13057;50.978;11.034;2022-08-04T14:05:47;8.20;;;2.00;;
25057;SDS011;13057;50.978;11.034;2022-08-04T14:08:32;8.52;;;2.42;;
25057;SDS011;13057;50.978;11.034;2022-08-04T14:11:09;7.47;;;1.67;;
25057;SDS011;13057;50.978;11.034;2022-08-04T14:13:35;5.57;;;2.30;;
25057;SDS011;13057;50.978;11.034;2022-08-04T14:16:02;4.40;;;1.90;;
25057;SDS011;13057;50.978;11.034;2022-08-04T14:18:39;3.33;;;1.90;;
25057;SDS011;13057;50.978;11.034;2022-08-04T14:21:06;11.27;;;2.00;;
25057;SDS011;13057;50.978;11.034;2022-08-04T14:23:39;10.80;;;2.37;;
25057;SDS011;13057;50.978;11.034;2022-08-04T14:28:50;5.35;;;1.70;;
25057;SDS011;13057;50.978;11.034;2022-08-04T14:31:19;2.95;;;1.40;;
25057;SDS011;13057;50.978;11.034;2022-08-04T14:33:49;6.75;;;1.40;;
25057;SDS011;13057;50.978;11.034;2022-08-04T14:36:17;5.22;;;1.50;;
25057;SDS011;13057;50.978;11.034;2022-08-04T14:38:49;3.72;;;1.83;;
25057;SDS011;13057;50.978;11.034;2022-08-04T14:41:22;5.75;;;2.00;;
25057;SDS011;13057;50.978;11.034;2022-08-04T14:43:52;3.85;;;1.77;;
25057;SDS011;13057;50.978;11.034;2022-08-04T14:46:21;3.17;;;1.50;;
25057;SDS011;13057;50.978;11.034;2022-08-04T14:48:58;5.78;;;1.75;;
25057;SDS011;13057;50.978;11.034;2022-08-04T14:51:27;4.63;;;1.42;;
25057;SDS011;13057;50.978;11.034;2022-08-04T14:54:00;3.95;;;1.48;;
25057;SDS011;13057;50.978;11.034;2022-08-04T14:56:26;7.53;;;1.60;;
25057;SDS011;13057;50.978;11.034;2022-08-04T14:58:59;5.35;;;1.58;;
25057;SDS011;13057;50.978;11.034;2022-08-04T15:01:27;8.05;;;1.88;;
25057;SDS011;13057;50.978;11.034;2022-08-04T15:03:54;3.78;;;1.60;;
25057;SDS011;13057;50.978;11.034;2022-08-04T15:06:22;5.53;;;1.60;;
25057;SDS011;13057;50.978;11.034;2022-08-04T15:08:50;8.07;;;1.98;;
25057;SDS011;13057;50.978;11.034;2022-08-04T15:11:18;8.77;;;1.73;;
25057;SDS011;13057;50.978;11.034;2022-08-04T15:13:45;4.53;;;1.92;;
25057;SDS011;13057;50.978;11.034;2022-08-04T15:16:11;8.55;;;2.03;;
25057;SDS011;13057;50.978;11.034;2022-08-04T15:18:39;4.13;;;1.90;;
25057;SDS011;13057;50.978;11.034;2022-08-04T15:21:06;5.45;;;1.83;;
25057;SDS011;13057;50.978;11.034;2022-08-04T15:23:34;7.70;;;2.10;;
25057;SDS011;13057;50.978;11.034;2022-08-04T15:26:02;3.08;;;1.98;;
25057;SDS011;13057;50.978;11.034;2022-08-04T15:28:30;9.52;;;2.10;;
25057;SDS011;13057;50.978;11.034;2022-08-04T15:31:00;8.30;;;2.80;;
25057;SDS011;13057;50.978;11.034;2022-08-04T15:33:30;10.15;;;2.50;;
25057;SDS011;13057;50.978;11.034;2022-08-04T15:36:08;6.15;;;2.65;;
25057;SDS011;13057;50.978;11.034;2022-08-04T15:38:54;7.97;;;2.25;;
25057;SDS011;13057;50.978;11.034;2022-08-04T15:41:37;6.82;;;2.38;;
25057;SDS011;13057;50.978;11.034;2022-08-04T15:44:20;6.07;;;2.85;;
25057;SDS011;13057;50.978;11.034;2022-08-04T15:47:12;6.07;;;2.38;;
25057;SDS011;13057;50.978;11.034;2022-08-04T15:49:39;7.97;;;2.40;;
25057;SDS011;13057;50.978;11.034;2022-08-04T15:52:08;9.57;;;2.53;;
25057;SDS011;13057;50.978;11.034;2022-08-04T15:54:36;11.73;;;2.22;;
25057;SDS011;13057;50.978;11.034;2022-08-04T15:57:03;5.20;;;2.20;;
25057;SDS011;13057;50.978;11.034;2022-08-04T16:02:28;6.70;;;2.17;;
25057;SDS011;13057;50.978;11.034;2022-08-04T16:07:54;4.35;;;2.20;;
25057;SDS011;13057;50.978;11.034;2022-08-04T16:10:36;10.82;;;2.72;;
25057;SDS011;13057;50.978;11.034;2022-08-04T16:13:07;8.65;;;2.20;;
25057;SDS011;13057;50.978;11.034;2022-08-04T16:15:38;6.20;;;2.22;;
25057;SDS011;13057;50.978;11.034;2022-08-04T16:18:08;5.40;;;2.30;;
25057;SDS011;13057;50.978;11.034;2022-08-04T16:20:35;6.82;;;2.50;;
25057;SDS011;13057;50.978;11.034;2022-08-04T16:23:09;6.78;;;2.20;;
25057;SDS011;13057;50.978;11.034;2022-08-04T16:26:00;6.30;;;2.03;;
25057;SDS011;13057;50.978;11.034;2022-08-04T16:28:41;9.63;;;2.40;;
25057;SDS011;13057;50.978;11.034;2022-08-04T16:31:08;8.05;;;2.50;;
25057;SDS011;13057;50.978;11.034;2022-08-04T16:33:36;6.20;;;2.60;;
25057;SDS011;13057;50.978;11.034;2022-08-04T16:36:04;5.43;;;2.50;;
25057;SDS011;13057;50.978;11.034;2022-08-04T16:38:32;5.07;;;2.40;;
25057;SDS011;13057;50.978;11.034;2022-08-04T16:41:36;3.10;;;2.03;;
25057;SDS011;13057;50.978;11.034;2022-08-04T16:44:42;5.30;;;2.22;;
25057;SDS011;13057;50.978;11.034;2022-08-04T16:46:58;4.15;;;1.80;;
25057;SDS011;13057;50.978;11.034;2022-08-04T16:49:25;7.55;;;2.90;;